sensor_id;sensor_type;location;lat;lon;timestamp;pressure;altitude;pressure_sealevel;temperature;humidity
11888;BME280;6003;42.756;23.130;2023-05-27T00:00:05;155901.66;;;13.54;100.00
11888;BME280;6003;42.756;23.130;2023-05-27T00:02:33;155917.56;;;13.60;100.00
11888;BME280;6003;42.756;23.130;2023-05-27T00:05:00;155938.75;;;13.68;100.00
11888;BME280;6003;42.756;23.130;2023-05-27T00:07:27;155893.72;;;13.51;100.00
11888;BME280;6003;42.756;23.130;2023-05-27T00:09:55;155810.22;;;13.19;100.00
11888;BME280;6003;42.756;23.130;2023-05-27T00:12:22;155744.00;;;12.93;100.00
11888;BME280;6003;42.756;23.130;2023-05-27T00:14:49;155704.28;;;12.78;100.00
11888;BME280;6003;42.756;23.130;2023-05-27T00:17:16;155698.97;;;12.76;100.00
11888;BME280;6003;42.756;23.130;2023-05-27T00:19:43;155692.34;;;12.73;100.00
11888;BME280;6003;42.756;23.130;2023-05-27T00:22:13;155720.16;;;12.84;100.00
11888;BME280;6003;42.756;23.130;2023-05-27T00:24:40;155738.69;;;12.91;100.00
11888;BME280;6003;42.756;23.130;2023-05-27T00:27:09;155762.50;;;13.00;100.00
11888;BME280;6003;42.756;23.130;2023-05-27T00:29:36;155778.44;;;13.06;100.00
11888;BME280;6003;42.756;23.130;2023-05-27T00:32:03;155795.66;;;13.13;100.00
11888;BME280;6003;42.756;23.130;2023-05-27T00:34:31;155804.91;;;13.17;100.00
11888;BME280;6003;42.756;23.130;2023-05-27T00:36:59;155804.91;;;13.17;100.00
11888;BME280;6003;42.756;23.130;2023-05-27T00:39:26;155803.59;;;13.16;100.00
11888;BME280;6003;42.756;23.130;2023-05-27T00:41:53;155799.59;;;13.15;100.00
11888;BME280;6003;42.756;23.130;2023-05-27T00:44:21;155804.91;;;13.17;100.00
11888;BME280;6003;42.756;23.130;2023-05-27T00:46:48;155810.22;;;13.19;100.00
11888;BME280;6003;42.756;23.130;2023-05-27T00:49:16;155828.78;;;13.26;100.00
11888;BME280;6003;42.756;23.130;2023-05-27T00:51:43;155834.09;;;13.28;100.00
11888;BME280;6003;42.756;23.130;2023-05-27T00:54:11;155847.38;;;13.33;100.00
11888;BME280;6003;42.756;23.130;2023-05-27T00:56:38;155832.78;;;13.27;100.00
11888;BME280;6003;42.756;23.130;2023-05-27T00:59:05;155843.34;;;13.31;100.00
11888;BME280;6003;42.756;23.130;2023-05-27T01:01:33;155865.88;;;13.40;100.00
11888;BME280;6003;42.756;23.130;2023-05-27T01:04:02;155879.13;;;13.45;100.00
11888;BME280;6003;42.756;23.130;2023-05-27T01:06:38;155891.09;;;13.50;100.00
11888;BME280;6003;42.756;23.130;2023-05-27T01:09:11;155909.59;;;13.57;100.00
11888;BME280;6003;42.756;23.130;2023-05-27T01:11:45;155910.91;;;13.58;100.00
11888;BME280;6003;42.756;23.130;2023-05-27T01:14:16;155916.22;;;13.60;100.00
11888;BME280;6003;42.756;23.130;2023-05-27T01:16:46;155929.50;;;13.65;100.00
11888;BME280;6003;42.756;23.130;2023-05-27T01:19:28;155929.50;;;13.65;100.00
11888;BME280;6003;42.756;23.130;2023-05-27T01:21:57;155934.81;;;13.67;100.00
11888;BME280;6003;42.756;23.130;2023-05-27T01:24:27;155952.03;;;13.73;100.00
11888;BME280;6003;42.756;23.130;2023-05-27T01:26:54;155944.06;;;13.70;100.00
11888;BME280;6003;42.756;23.130;2023-05-27T01:29:22;155932.13;;;13.66;100.00
11888;BME280;6003;42.756;23.130;2023-05-27T01:31:55;155924.19;;;13.63;100.00
11888;BME280;6003;42.756;23.130;2023-05-27T01:34:28;155924.19;;;13.63;100.00
11888;BME280;6003;42.756;23.130;2023-05-27T01:36:59;155924.19;;;13.63;100.00
11888;BME280;6003;42.756;23.130;2023-05-27T01:39:31;155916.22;;;13.60;100.00
11888;BME280;6003;42.756;23.130;2023-05-27T01:42:00;155908.28;;;13.57;100.00
11888;BME280;6003;42.756;23.130;2023-05-27T01:44:29;155902.97;;;13.54;100.00
11888;BME280;6003;42.756;23.130;2023-05-27T01:47:00;155888.41;;;13.49;100.00
11888;BME280;6003;42.756;23.130;2023-05-27T01:49:27;155807.59;;;13.18;100.00
11888;BME280;6003;42.756;23.130;2023-05-27T01:51:54;155803.59;;;13.16;100.00
11888;BME280;6003;42.756;23.130;2023-05-27T01:54:21;155816.84;;;13.21;100.00
11888;BME280;6003;42.756;23.130;2023-05-27T01:56:50;155818.16;;;13.22;100.00
11888;BME280;6003;42.756;23.130;2023-05-27T01:59:16;155774.44;;;13.05;100.00
11888;BME280;6003;42.756;23.130;2023-05-27T02:01:43;155751.94;;;12.96;100.00
11888;BME280;6003;42.756;23.130;2023-05-27T02:04:10;155746.63;;;12.94;100.00
11888;BME280;6003;42.756;23.130;2023-05-27T02:06:37;155744.00;;;12.93;100.00
11888;BME280;6003;42.756;23.130;2023-05-27T02:09:04;155744.00;;;12.93;100.00
11888;BME280;6003;42.756;23.130;2023-05-27T02:11:32;155755.94;;;12.98;100.00
11888;BME280;6003;42.756;23.130;2023-05-27T02:14:00;155770.50;;;13.03;100.00
11888;BME280;6003;42.756;23.130;2023-05-27T02:16:27;155767.81;;;13.02;100.00
11888;BME280;6003;42.756;23.130;2023-05-27T02:18:55;155765.19;;;13.01;100.00
11888;BME280;6003;42.756;23.130;2023-05-27T02:21:22;155745.31;;;12.94;100.00
11888;BME280;6003;42.756;23.130;2023-05-27T02:23:49;155716.19;;;12.82;100.00
11888;BME280;6003;42.756;23.130;2023-05-27T02:26:17;155683.09;;;12.70;100.00
11888;BME280;6003;42.756;23.130;2023-05-27T02:28:43;155612.91;;;12.42;100.00
11888;BME280;6003;42.756;23.130;2023-05-27T02:31:12;155606.34;;;12.40;100.00
11888;BME280;6003;42.756;23.130;2023-05-27T02:33:39;155638.09;;;12.52;100.00
11888;BME280;6003;42.756;23.130;2023-05-27T02:36:06;155656.59;;;12.59;100.00
11888;BME280;6003;42.756;23.130;2023-05-27T02:38:33;155649.97;;;12.57;100.00
11888;BME280;6003;42.756;23.130;2023-05-27T02:41:00;155643.34;;;12.54;100.00
11888;BME280;6003;42.756;23.130;2023-05-27T02:43:26;155651.34;;;12.57;100.00
11888;BME280;6003;42.756;23.130;2023-05-27T02:45:53;155653.97;;;12.58;100.00
11888;BME280;6003;42.756;23.130;2023-05-27T02:48:22;155661.91;;;12.61;100.00
11888;BME280;6003;42.756;23.130;2023-05-27T02:50:49;155664.53;;;12.62;100.00
11888;BME280;6003;42.756;23.130;2023-05-27T02:53:15;155660.59;;;12.61;100.00
11888;BME280;6003;42.756;23.130;2023-05-27T02:55:42;155653.97;;;12.58;100.00
11888;BME280;6003;42.756;23.130;2023-05-27T02:58:09;155646.03;;;12.55;100.00
11888;BME280;6003;42.756;23.130;2023-05-27T03:00:36;155624.84;;;12.47;100.00
11888;BME280;6003;42.756;23.130;2023-05-27T03:03:03;155616.91;;;12.44;100.00
11888;BME280;6003;42.756;23.130;2023-05-27T03:05:33;155603.66;;;12.39;100.00
11888;BME280;6003;42.756;23.130;2023-05-27T03:08:00;155611.59;;;12.42;100.00
11888;BME280;6003;42.756;23.130;2023-05-27T03:10:28;155601.03;;;12.38;100.00
11888;BME280;6003;42.756;23.130;2023-05-27T03:12:56;155529.53;;;12.10;100.00
11888;BME280;6003;42.756;23.130;2023-05-27T03:15:22;155538.78;;;12.14;100.00
11888;BME280;6003;42.756;23.130;2023-05-27T03:17:49;155585.16;;;12.32;100.00
11888;BME280;6003;42.756;23.130;2023-05-27T03:20:17;155638.09;;;12.52;100.00
11888;BME280;6003;42.756;23.130;2023-05-27T03:22:45;155646.03;;;12.55;100.00
11888;BME280;6003;42.756;23.130;2023-05-27T03:25:13;155667.22;;;12.63;100.00
11888;BME280;6003;42.756;23.130;2023-05-27T03:27:39;155744.00;;;12.93;100.00
11888;BME280;6003;42.756;23.130;2023-05-27T03:30:07;155818.16;;;13.22;100.00
11888;BME280;6003;42.756;23.130;2023-05-27T03:32:34;155802.28;;;13.16;100.00
11888;BME280;6003;42.756;23.130;2023-05-27T03:35:01;155818.16;;;13.22;100.00
11888;BME280;6003;42.756;23.130;2023-05-27T03:37:28;155860.63;;;13.38;100.00
11888;BME280;6003;42.756;23.130;2023-05-27T03:39:56;155900.34;;;13.53;100.00
11888;BME280;6003;42.756;23.130;2023-05-27T03:42:23;155921.56;;;13.62;100.00
11888;BME280;6003;42.756;23.130;2023-05-27T03:44:50;155913.59;;;13.59;100.00
11888;BME280;6003;42.756;23.130;2023-05-27T03:47:17;155914.91;;;13.59;100.00
11888;BME280;6003;42.756;23.130;2023-05-27T03:49:46;155921.56;;;13.62;100.00
11888;BME280;6003;42.756;23.130;2023-05-27T03:52:13;155917.56;;;13.60;100.00
11888;BME280;6003;42.756;23.130;2023-05-27T03:54:40;155902.97;;;13.54;100.00
11888;BME280;6003;42.756;23.130;2023-05-27T03:57:08;155916.22;;;13.60;100.00
11888;BME280;6003;42.756;23.130;2023-05-27T03:59:35;155880.44;;;13.46;100.00
11888;BME280;6003;42.756;23.130;2023-05-27T04:02:03;155860.63;;;13.38;100.00
11888;BME280;6003;42.756;23.130;2023-05-27T04:04:30;155868.56;;;13.41;100.00
11888;BME280;6003;42.756;23.130;2023-05-27T04:06:56;155904.28;;;13.55;100.00
11888;BME280;6003;42.756;23.130;2023-05-27T04:09:23;155926.88;;;13.64;100.00
11888;BME280;6003;42.756;23.130;2023-05-27T04:11:50;155929.50;;;13.65;100.00
11888;BME280;6003;42.756;23.130;2023-05-27T04:14:18;155962.59;;;13.77;100.00
11888;BME280;6003;42.756;23.130;2023-05-27T04:16:45;155995.75;;;13.90;100.00
11888;BME280;6003;42.756;23.130;2023-05-27T04:19:12;156026.22;;;14.02;100.00
11888;BME280;6003;42.756;23.130;2023-05-27T04:21:40;156028.88;;;14.03;100.00
11888;BME280;6003;42.756;23.130;2023-05-27T04:24:07;156050.06;;;14.11;100.00
11888;BME280;6003;42.756;23.130;2023-05-27T04:26:34;156056.72;;;14.14;100.00
11888;BME280;6003;42.756;23.130;2023-05-27T04:29:00;156069.97;;;14.19;100.00
11888;BME280;6003;42.756;23.130;2023-05-27T04:31:30;156091.19;;;14.27;100.00
11888;BME280;6003;42.756;23.130;2023-05-27T04:33:56;156117.66;;;14.37;100.00
11888;BME280;6003;42.756;23.130;2023-05-27T04:36:24;156134.91;;;14.44;100.00
11888;BME280;6003;42.756;23.130;2023-05-27T04:38:52;156154.84;;;14.52;100.00
11888;BME280;6003;42.756;23.130;2023-05-27T04:41:19;156173.44;;;14.59;100.00
11888;BME280;6003;42.756;23.130;2023-05-27T04:43:52;156225.16;;;14.79;100.00
11888;BME280;6003;42.756;23.130;2023-05-27T04:46:19;156278.19;;;14.99;100.00
11888;BME280;6003;42.756;23.130;2023-05-27T04:48:47;156348.47;;;15.26;100.00
11888;BME280;6003;42.756;23.130;2023-05-27T04:51:14;156410.81;;;15.50;100.00
11888;BME280;6003;42.756;23.130;2023-05-27T04:53:41;156467.94;;;15.72;100.00
11888;BME280;6003;42.756;23.130;2023-05-27T04:56:08;156502.44;;;15.86;100.00
11888;BME280;6003;42.756;23.130;2023-05-27T04:58:34;156499.75;;;15.85;100.00
11888;BME280;6003;42.756;23.130;2023-05-27T05:01:02;156523.66;;;15.94;100.00
11888;BME280;6003;42.756;23.130;2023-05-27T05:03:30;156530.28;;;15.96;100.00
11888;BME280;6003;42.756;23.130;2023-05-27T05:06:06;156555.53;;;16.06;100.00
11888;BME280;6003;42.756;23.130;2023-05-27T05:08:33;156632.50;;;16.36;100.00
11888;BME280;6003;42.756;23.130;2023-05-27T05:11:00;156786.63;;;16.95;100.00
11888;BME280;6003;42.756;23.130;2023-05-27T05:13:27;157174.72;;;18.44;100.00
11888;BME280;6003;42.756;23.130;2023-05-27T05:15:54;157515.31;;;19.75;97.24
11888;BME280;6003;42.756;23.130;2023-05-27T05:18:21;157697.66;;;20.45;91.47
11888;BME280;6003;42.756;23.130;2023-05-27T05:20:49;157773.66;;;20.75;87.83
11888;BME280;6003;42.756;23.130;2023-05-27T05:23:17;157837.56;;;20.99;87.06
11888;BME280;6003;42.756;23.130;2023-05-27T05:25:44;157901.53;;;21.24;87.04
11888;BME280;6003;42.756;23.130;2023-05-27T05:28:12;157928.16;;;21.34;84.61
11888;BME280;6003;42.756;23.130;2023-05-27T05:30:39;158042.78;;;21.78;82.31
11888;BME280;6003;42.756;23.130;2023-05-27T05:33:05;158133.47;;;22.13;81.16
11888;BME280;6003;42.756;23.130;2023-05-27T05:35:32;158098.78;;;21.99;79.19
11888;BME280;6003;42.756;23.130;2023-05-27T05:37:59;157938.88;;;21.38;79.69
11888;BME280;6003;42.756;23.130;2023-05-27T05:40:27;157809.59;;;20.88;82.24
11888;BME280;6003;42.756;23.130;2023-05-27T05:42:54;157624.50;;;20.17;85.16
11888;BME280;6003;42.756;23.130;2023-05-27T05:45:21;157488.75;;;19.65;86.72
11888;BME280;6003;42.756;23.130;2023-05-27T05:47:48;157290.44;;;18.89;88.70
11888;BME280;6003;42.756;23.130;2023-05-27T05:50:14;157180.00;;;18.46;91.49
11888;BME280;6003;42.756;23.130;2023-05-27T05:52:41;157113.50;;;18.21;93.11
11888;BME280;6003;42.756;23.130;2023-05-27T05:55:08;157044.41;;;17.94;95.45
11888;BME280;6003;42.756;23.130;2023-05-27T05:57:36;157012.53;;;17.82;96.48
11888;BME280;6003;42.756;23.130;2023-05-27T06:00:04;156972.63;;;17.67;97.10
11888;BME280;6003;42.756;23.130;2023-05-27T06:02:33;156968.59;;;17.65;97.39
11888;BME280;6003;42.756;23.130;2023-05-27T06:05:00;157004.53;;;17.79;96.69
11888;BME280;6003;42.756;23.130;2023-05-27T06:07:27;157052.38;;;17.97;97.78
11888;BME280;6003;42.756;23.130;2023-05-27T06:09:54;157153.44;;;18.36;98.16
11888;BME280;6003;42.756;23.130;2023-05-27T06:12:20;157165.38;;;18.41;94.72
11888;BME280;6003;42.756;23.130;2023-05-27T06:14:48;157158.72;;;18.38;97.02
11888;BME280;6003;42.756;23.130;2023-05-27T06:17:15;157279.81;;;18.85;94.70
11888;BME280;6003;42.756;23.130;2023-05-27T06:19:42;157334.34;;;19.06;93.43
11888;BME280;6003;42.756;23.130;2023-05-27T06:22:09;157329.00;;;19.04;91.56
11888;BME280;6003;42.756;23.130;2023-05-27T06:24:36;157403.50;;;19.32;91.94
11888;BME280;6003;42.756;23.130;2023-05-27T06:27:03;157470.03;;;19.58;92.45
11888;BME280;6003;42.756;23.130;2023-05-27T06:29:30;157560.56;;;19.93;89.65
11888;BME280;6003;42.756;23.130;2023-05-27T06:31:59;157736.38;;;20.60;88.33
11888;BME280;6003;42.756;23.130;2023-05-27T06:34:25;157725.69;;;20.56;84.57
11888;BME280;6003;42.756;23.130;2023-05-27T06:36:52;157653.78;;;20.28;85.95
11888;BME280;6003;42.756;23.130;2023-05-27T06:39:19;157661.75;;;20.32;85.85
11888;BME280;6003;42.756;23.130;2023-05-27T06:41:46;157672.41;;;20.36;87.63
11888;BME280;6003;42.756;23.130;2023-05-27T06:44:13;157571.25;;;19.97;89.73
11888;BME280;6003;42.756;23.130;2023-05-27T06:46:39;157488.75;;;19.65;88.01
11888;BME280;6003;42.756;23.130;2023-05-27T06:49:08;157446.09;;;19.49;89.89
11888;BME280;6003;42.756;23.130;2023-05-27T06:51:35;157504.69;;;19.71;90.49
11888;BME280;6003;42.756;23.130;2023-05-27T06:54:02;157495.34;;;19.68;89.71
11888;BME280;6003;42.756;23.130;2023-05-27T06:56:29;157494.03;;;19.67;90.48
11888;BME280;6003;42.756;23.130;2023-05-27T06:58:56;157475.38;;;19.60;89.72
11888;BME280;6003;42.756;23.130;2023-05-27T07:01:24;157478.00;;;19.61;90.41
11888;BME280;6003;42.756;23.130;2023-05-27T07:03:50;157439.44;;;19.46;89.90
11888;BME280;6003;42.756;23.130;2023-05-27T07:06:19;157408.84;;;19.34;91.22
11888;BME280;6003;42.756;23.130;2023-05-27T07:08:45;157394.19;;;19.29;92.10
11888;BME280;6003;42.756;23.130;2023-05-27T07:11:12;157352.94;;;19.13;90.87
11888;BME280;6003;42.756;23.130;2023-05-27T07:13:39;157297.09;;;18.91;91.22
11888;BME280;6003;42.756;23.130;2023-05-27T07:16:06;157281.13;;;18.85;92.62
11888;BME280;6003;42.756;23.130;2023-05-27T07:18:32;157275.81;;;18.83;93.66
11888;BME280;6003;42.756;23.130;2023-05-27T07:20:59;157281.13;;;18.85;93.76
11888;BME280;6003;42.756;23.130;2023-05-27T07:23:27;157257.22;;;18.76;93.69
11888;BME280;6003;42.756;23.130;2023-05-27T07:25:54;157246.50;;;18.72;92.91
11888;BME280;6003;42.756;23.130;2023-05-27T07:28:21;157233.19;;;18.67;92.66
11888;BME280;6003;42.756;23.130;2023-05-27T07:30:48;157270.47;;;18.81;93.16
11888;BME280;6003;42.756;23.130;2023-05-27T07:33:15;157282.47;;;18.86;91.78
11888;BME280;6003;42.756;23.130;2023-05-27T07:35:41;157305.06;;;18.94;91.59
11888;BME280;6003;42.756;23.130;2023-05-27T07:38:09;157344.97;;;19.10;91.94
11888;BME280;6003;42.756;23.130;2023-05-27T07:40:37;157313.03;;;18.98;91.27
11888;BME280;6003;42.756;23.130;2023-05-27T07:43:04;157278.44;;;18.84;92.65
11888;BME280;6003;42.756;23.130;2023-05-27T07:45:31;157253.19;;;18.75;91.58
11888;BME280;6003;42.756;23.130;2023-05-27T07:47:58;157225.19;;;18.64;91.99
11888;BME280;6003;42.756;23.130;2023-05-27T07:50:25;157225.19;;;18.64;90.52
11888;BME280;6003;42.756;23.130;2023-05-27T07:52:51;157213.25;;;18.59;92.11
11888;BME280;6003;42.756;23.130;2023-05-27T07:55:18;157203.91;;;18.56;92.93
11888;BME280;6003;42.756;23.130;2023-05-27T07:57:47;157197.31;;;18.53;94.02
11888;BME280;6003;42.756;23.130;2023-05-27T08:00:14;157195.94;;;18.53;94.89
11888;BME280;6003;42.756;23.130;2023-05-27T08:02:41;157199.97;;;18.54;95.23
11888;BME280;6003;42.756;23.130;2023-05-27T08:05:09;157190.66;;;18.51;93.49
11888;BME280;6003;42.756;23.130;2023-05-27T08:07:36;157177.34;;;18.45;93.42
11888;BME280;6003;42.756;23.130;2023-05-27T08:10:03;157153.44;;;18.36;93.12
11888;BME280;6003;42.756;23.130;2023-05-27T08:12:30;157134.78;;;18.29;92.72
11888;BME280;6003;42.756;23.130;2023-05-27T08:14:58;157132.16;;;18.28;93.79
11888;BME280;6003;42.756;23.130;2023-05-27T08:17:26;157134.78;;;18.29;93.29
11888;BME280;6003;42.756;23.130;2023-05-27T08:19:52;157137.50;;;18.30;92.40
11888;BME280;6003;42.756;23.130;2023-05-27T08:22:19;157149.41;;;18.35;91.91
11888;BME280;6003;42.756;23.130;2023-05-27T08:24:46;157161.41;;;18.39;92.13
11888;BME280;6003;42.756;23.130;2023-05-27T08:27:15;157191.97;;;18.51;93.10
11888;BME280;6003;42.756;23.130;2023-05-27T08:29:42;157211.94;;;18.59;91.60
11888;BME280;6003;42.756;23.130;2023-05-27T08:32:11;157245.16;;;18.71;91.37
11888;BME280;6003;42.756;23.130;2023-05-27T08:34:38;157286.47;;;18.87;91.29
11888;BME280;6003;42.756;23.130;2023-05-27T08:37:06;157293.06;;;18.90;89.70
11888;BME280;6003;42.756;23.130;2023-05-27T08:39:33;157323.66;;;19.02;89.01
11888;BME280;6003;42.756;23.130;2023-05-27T08:42:00;157355.63;;;19.14;88.15
11888;BME280;6003;42.756;23.130;2023-05-27T08:44:28;157391.56;;;19.28;87.77
11888;BME280;6003;42.756;23.130;2023-05-27T08:46:56;157352.94;;;19.13;84.90
11888;BME280;6003;42.756;23.130;2023-05-27T08:49:24;157342.31;;;19.09;86.41
11888;BME280;6003;42.756;23.130;2023-05-27T08:51:51;157348.97;;;19.11;86.40
11888;BME280;6003;42.756;23.130;2023-05-27T08:54:19;157258.53;;;18.77;85.59
11888;BME280;6003;42.756;23.130;2023-05-27T08:56:46;157209.25;;;18.58;88.23
11888;BME280;6003;42.756;23.130;2023-05-27T08:59:16;157237.19;;;18.68;89.45
11888;BME280;6003;42.756;23.130;2023-05-27T09:01:45;157187.97;;;18.49;88.59
11888;BME280;6003;42.756;23.130;2023-05-27T09:04:12;157169.38;;;18.42;90.02
11888;BME280;6003;42.756;23.130;2023-05-27T09:06:41;157180.00;;;18.46;87.92
11888;BME280;6003;42.756;23.130;2023-05-27T09:09:07;157209.25;;;18.58;89.36
11888;BME280;6003;42.756;23.130;2023-05-27T09:11:38;157209.25;;;18.58;86.69
11888;BME280;6003;42.756;23.130;2023-05-27T09:14:06;157132.16;;;18.28;86.16
11888;BME280;6003;42.756;23.130;2023-05-27T09:16:33;157080.31;;;18.08;88.60
11888;BME280;6003;42.756;23.130;2023-05-27T09:19:00;157101.59;;;18.16;87.35
11888;BME280;6003;42.756;23.130;2023-05-27T09:21:27;157088.28;;;18.11;89.52
11888;BME280;6003;42.756;23.130;2023-05-27T09:23:56;157102.91;;;18.17;91.59
11888;BME280;6003;42.756;23.130;2023-05-27T09:26:24;157140.13;;;18.31;92.02
11888;BME280;6003;42.756;23.130;2023-05-27T09:28:51;157206.59;;;18.57;89.23
11888;BME280;6003;42.756;23.130;2023-05-27T09:31:20;157281.13;;;18.85;88.78
11888;BME280;6003;42.756;23.130;2023-05-27T09:33:48;157362.28;;;19.16;90.66
11888;BME280;6003;42.756;23.130;2023-05-27T09:36:19;157391.56;;;19.28;88.86
11888;BME280;6003;42.756;23.130;2023-05-27T09:38:47;157458.03;;;19.53;89.16
11888;BME280;6003;42.756;23.130;2023-05-27T09:41:23;157531.28;;;19.81;90.98
11888;BME280;6003;42.756;23.130;2023-05-27T09:43:53;157592.50;;;20.05;86.51
11888;BME280;6003;42.756;23.130;2023-05-27T09:46:21;157637.75;;;20.22;83.82
11888;BME280;6003;42.756;23.130;2023-05-27T09:48:48;157672.41;;;20.36;87.13
11888;BME280;6003;42.756;23.130;2023-05-27T09:51:15;157727.03;;;20.57;85.59
11888;BME280;6003;42.756;23.130;2023-05-27T09:53:42;157850.91;;;21.04;84.62
11888;BME280;6003;42.756;23.130;2023-05-27T09:56:10;157850.91;;;21.04;81.11
11888;BME280;6003;42.756;23.130;2023-05-27T09:58:38;157834.94;;;20.98;83.23
11888;BME280;6003;42.756;23.130;2023-05-27T10:01:05;157712.31;;;20.51;80.54
11888;BME280;6003;42.756;23.130;2023-05-27T10:03:32;157593.88;;;20.05;82.46
11888;BME280;6003;42.756;23.130;2023-05-27T10:06:00;157696.34;;;20.45;83.71
11888;BME280;6003;42.756;23.130;2023-05-27T10:08:28;157830.91;;;20.96;84.03
11888;BME280;6003;42.756;23.130;2023-05-27T10:10:55;157942.84;;;21.39;82.46
11888;BME280;6003;42.756;23.130;2023-05-27T10:13:24;157965.50;;;21.48;82.85
11888;BME280;6003;42.756;23.130;2023-05-27T10:15:52;158128.09;;;22.11;81.62
11888;BME280;6003;42.756;23.130;2023-05-27T10:18:23;158384.22;;;23.09;82.47
11888;BME280;6003;42.756;23.130;2023-05-27T10:20:52;158384.22;;;23.09;80.20
11888;BME280;6003;42.756;23.130;2023-05-27T10:23:21;158449.59;;;23.34;71.98
11888;BME280;6003;42.756;23.130;2023-05-27T10:25:52;158405.56;;;23.17;78.38
11888;BME280;6003;42.756;23.130;2023-05-27T10:28:26;158595.06;;;23.90;74.42
11888;BME280;6003;42.756;23.130;2023-05-27T10:31:03;158563.06;;;23.77;71.73
11888;BME280;6003;42.756;23.130;2023-05-27T10:33:31;158636.47;;;24.05;74.87
11888;BME280;6003;42.756;23.130;2023-05-27T10:36:04;158699.19;;;24.29;73.51
11888;BME280;6003;42.756;23.130;2023-05-27T10:38:34;158708.50;;;24.33;73.13
11888;BME280;6003;42.756;23.130;2023-05-27T10:41:02;158611.06;;;23.96;71.45
11888;BME280;6003;42.756;23.130;2023-05-27T10:43:30;158517.63;;;23.60;73.59
11888;BME280;6003;42.756;23.130;2023-05-27T10:46:04;158373.56;;;23.05;73.00
11888;BME280;6003;42.756;23.130;2023-05-27T10:48:31;158210.81;;;22.42;72.13
11888;BME280;6003;42.756;23.130;2023-05-27T10:51:00;157912.16;;;21.28;76.28
11888;BME280;6003;42.756;23.130;2023-05-27T10:53:28;157717.72;;;20.53;75.18
11888;BME280;6003;42.756;23.130;2023-05-27T10:55:58;157741.66;;;20.62;76.37
11888;BME280;6003;42.756;23.130;2023-05-27T10:58:25;157816.25;;;20.91;75.95
11888;BME280;6003;42.756;23.130;2023-05-27T11:00:53;157885.50;;;21.17;74.97
11888;BME280;6003;42.756;23.130;2023-05-27T11:03:23;157990.84;;;21.58;80.32
11888;BME280;6003;42.756;23.130;2023-05-27T11:06:00;157968.19;;;21.49;74.50
11888;BME280;6003;42.756;23.130;2023-05-27T11:08:28;157936.19;;;21.37;74.26
11888;BME280;6003;42.756;23.130;2023-05-27T11:10:59;157986.84;;;21.56;74.62
11888;BME280;6003;42.756;23.130;2023-05-27T11:13:32;158013.50;;;21.67;73.62
11888;BME280;6003;42.756;23.130;2023-05-27T11:16:00;157925.50;;;21.33;70.49
11888;BME280;6003;42.756;23.130;2023-05-27T11:18:36;157937.50;;;21.37;73.29
11888;BME280;6003;42.756;23.130;2023-05-27T11:21:03;157857.56;;;21.07;76.87
11888;BME280;6003;42.756;23.130;2023-05-27T11:23:36;158010.81;;;21.66;77.68
11888;BME280;6003;42.756;23.130;2023-05-27T11:26:10;157909.53;;;21.27;75.92
11888;BME280;6003;42.756;23.130;2023-05-27T11:28:37;157890.84;;;21.19;76.08
11888;BME280;6003;42.756;23.130;2023-05-27T11:31:04;157752.34;;;20.66;77.35
11888;BME280;6003;42.756;23.130;2023-05-27T11:33:34;157757.63;;;20.68;78.44
11888;BME280;6003;42.756;23.130;2023-05-27T11:36:05;157842.91;;;21.01;77.86
11888;BME280;6003;42.756;23.130;2023-05-27T11:41:21;157804.28;;;20.86;76.84
11888;BME280;6003;42.756;23.130;2023-05-27T11:43:54;157825.63;;;20.94;75.86
11888;BME280;6003;42.756;23.130;2023-05-27T11:46:21;157817.56;;;20.91;75.06
11888;BME280;6003;42.756;23.130;2023-05-27T11:48:49;157805.63;;;20.87;73.24
11888;BME280;6003;42.756;23.130;2023-05-27T11:51:16;157794.94;;;20.83;74.67
11888;BME280;6003;42.756;23.130;2023-05-27T11:53:46;157773.66;;;20.75;73.19
11888;BME280;6003;42.756;23.130;2023-05-27T11:56:13;157814.94;;;20.90;75.95
11888;BME280;6003;42.756;23.130;2023-05-27T11:58:41;157739.03;;;20.61;72.79
11888;BME280;6003;42.756;23.130;2023-05-27T12:01:08;157794.94;;;20.83;74.43
11888;BME280;6003;42.756;23.130;2023-05-27T12:03:34;157861.53;;;21.08;73.53
11888;BME280;6003;42.756;23.130;2023-05-27T12:06:03;157805.63;;;20.87;72.54
11888;BME280;6003;42.756;23.130;2023-05-27T12:08:30;157837.56;;;20.99;76.60
11888;BME280;6003;42.756;23.130;2023-05-27T12:10:57;157885.50;;;21.17;72.22
11888;BME280;6003;42.756;23.130;2023-05-27T12:13:24;157878.88;;;21.15;73.99
11888;BME280;6003;42.756;23.130;2023-05-27T12:15:51;157877.50;;;21.14;74.01
11888;BME280;6003;42.756;23.130;2023-05-27T12:18:18;157917.50;;;21.30;74.37
11888;BME280;6003;42.756;23.130;2023-05-27T12:20:45;157874.88;;;21.13;71.60
11888;BME280;6003;42.756;23.130;2023-05-27T12:23:13;157940.22;;;21.38;73.92
11888;BME280;6003;42.756;23.130;2023-05-27T12:25:40;157970.84;;;21.50;73.68
11888;BME280;6003;42.756;23.130;2023-05-27T12:28:07;157984.19;;;21.55;70.07
11888;BME280;6003;42.756;23.130;2023-05-27T12:30:34;157997.47;;;21.60;71.21
11888;BME280;6003;42.756;23.130;2023-05-27T12:33:02;157962.84;;;21.47;72.11
11888;BME280;6003;42.756;23.130;2023-05-27T12:35:29;157906.81;;;21.26;71.33
11888;BME280;6003;42.756;23.130;2023-05-27T12:37:56;157852.22;;;21.05;71.31
11888;BME280;6003;42.756;23.130;2023-05-27T12:40:24;157921.47;;;21.31;74.13
11888;BME280;6003;42.756;23.130;2023-05-27T12:42:51;157924.19;;;21.32;71.57
11888;BME280;6003;42.756;23.130;2023-05-27T12:45:18;157966.84;;;21.49;69.08
11888;BME280;6003;42.756;23.130;2023-05-27T12:47:47;157970.84;;;21.50;70.11
11888;BME280;6003;42.756;23.130;2023-05-27T12:50:14;158024.16;;;21.71;69.94